Time;durP1;ratioP1;P1;durP2;ratioP2;P2;SDS_P1;SDS_P2;PMS_P1;PMS_P2;Temp;Humidity;BMP_temperature;BMP_pressure;BME280_temperature;BME280_humidity;BME280_pressure;Samples;Min_cycle;Max_cycle;Signal;HPM_P1;HPM_P2
2021/05/20 00:01:04;;;;;;;1.48;0.80;;;;;;;24.69;39.09;94127.53;4975981;28;20057;-75
2021/05/20 00:03:29;;;;;;;2.50;0.93;;;;;;;24.77;39.46;94141.94;4953315;29;20554;-75
2021/05/20 00:05:55;;;;;;;2.13;0.80;;;;;;;24.77;39.21;94142.69;4955033;28;20031;-75
2021/05/20 00:08:20;;;;;;;2.05;0.93;;;;;;;24.55;39.20;94104.34;4955757;29;20031;-75
2021/05/20 00:10:48;;;;;;;2.42;0.85;;;;;;;24.63;39.60;94135.13;4954713;28;20041;-75
2021/05/20 00:13:13;;;;;;;2.08;0.80;;;;;;;24.76;39.38;94148.69;4953606;29;20495;-75
2021/05/20 00:15:39;;;;;;;2.42;0.90;;;;;;;24.75;39.50;94149.94;4968332;28;20043;-75
2021/05/20 00:18:05;;;;;;;2.35;1.05;;;;;;;24.73;39.98;94147.03;4952639;29;20024;-75
2021/05/20 00:20:30;;;;;;;2.25;0.80;;;;;;;24.73;39.40;94144.31;4951037;29;20530;-75
2021/05/20 00:22:55;;;;;;;2.05;1.05;;;;;;;24.58;39.79;94127.84;4952103;29;20039;-75
2021/05/20 00:25:21;;;;;;;2.28;0.90;;;;;;;24.73;39.95;94144.31;4951148;29;20419;-75
2021/05/20 00:27:46;;;;;;;1.77;1.02;;;;;;;24.72;39.39;94137.38;4967052;28;20499;-75
2021/05/20 00:30:12;;;;;;;2.55;0.93;;;;;;;24.70;39.26;94150.84;4952294;29;20491;-75
2021/05/20 00:32:38;;;;;;;2.10;0.70;;;;;;;24.69;40.35;94143.91;4952414;28;20545;-75
2021/05/20 00:35:04;;;;;;;2.90;1.00;;;;;;;24.69;39.84;94143.91;4951654;28;20050;-75
2021/05/20 00:37:29;;;;;;;2.50;0.98;;;;;;;24.68;39.99;94132.25;4940376;28;20038;-75
2021/05/20 00:39:55;;;;;;;3.22;0.95;;;;;;;24.66;39.61;94117.69;4947659;29;20032;-75
2021/05/20 00:42:21;;;;;;;2.53;1.00;;;;;;;24.67;40.22;94119.16;4931274;29;20032;-75
2021/05/20 00:44:49;;;;;;;2.33;0.90;;;;;;;24.66;40.04;94123.84;4947905;29;20115;-75
2021/05/20 00:47:18;;;;;;;2.90;0.80;;;;;;;24.67;40.03;94124.59;4933224;29;20023;-75
2021/05/20 00:49:43;;;;;;;2.42;1.08;;;;;;;24.65;40.32;94127.13;4947269;29;20042;-75
2021/05/20 00:52:08;;;;;;;2.45;0.82;;;;;;;24.49;40.48;94103.78;4947395;29;20024;-75
2021/05/20 00:54:34;;;;;;;2.38;0.82;;;;;;;24.65;40.19;94127.13;4931480;29;20422;-75
2021/05/20 00:56:59;;;;;;;3.15;1.00;;;;;;;24.65;40.62;94132.59;4932290;29;20400;-75
2021/05/20 00:59:25;;;;;;;2.30;1.00;;;;;;;24.64;40.68;94131.16;4946818;29;20035;-75
2021/05/20 01:01:50;;;;;;;2.10;0.90;;;;;;;24.64;40.56;94125.69;4931434;29;20039;-75
2021/05/20 01:04:16;;;;;;;2.30;0.95;;;;;;;24.42;40.58;94099.00;4947977;29;20054;-75
2021/05/20 01:06:41;;;;;;;1.88;0.90;;;;;;;24.64;40.22;94109.31;4934390;29;20031;-75
2021/05/20 01:09:06;;;;;;;1.70;0.80;;;;;;;24.61;40.18;94113.13;4934137;29;20027;-75
2021/05/20 01:11:32;;;;;;;2.63;1.00;;;;;;;24.43;40.42;94089.53;4951203;29;20034;-75
2021/05/20 01:13:57;;;;;;;2.35;0.85;;;;;;;24.59;40.15;94107.47;4918016;29;20047;-75
2021/05/20 01:16:23;;;;;;;2.20;0.90;;;;;;;24.61;40.95;94104.91;4944474;28;20019;-75
2021/05/20 01:18:48;;;;;;;2.17;1.02;;;;;;;24.40;40.90;94085.16;4953410;28;20027;-75
2021/05/20 01:21:15;;;;;;;1.73;0.90;;;;;;;24.59;40.13;94102.00;4970648;28;20038;-75
2021/05/20 01:23:40;;;;;;;2.55;0.90;;;;;;;24.37;40.51;94069.88;4969199;28;20026;-75
2021/05/20 01:26:06;;;;;;;1.80;0.80;;;;;;;24.60;40.71;94092.53;4953013;28;20594;-76
2021/05/20 01:28:33;;;;;;;2.38;0.80;;;;;;;24.59;41.03;94091.81;4970227;28;20466;-75
2021/05/20 01:30:59;;;;;;;1.80;0.70;;;;;;;24.58;40.12;94095.81;4970061;28;20085;-75
2021/05/20 01:33:25;;;;;;;2.50;0.90;;;;;;;24.46;40.50;94069.38;4968114;28;20026;-75
2021/05/20 01:35:50;;;;;;;3.15;0.95;;;;;;;24.57;40.34;94082.69;4970236;28;20034;-75
2021/05/20 01:41:10;;;;;;;1.98;1.02;;;;;;;24.35;40.81;94039.66;4955255;28;20126;-75
2021/05/20 01:43:36;;;;;;;1.55;0.80;;;;;;;24.23;40.94;94010.44;4937849;28;20462;-75
2021/05/20 01:46:01;;;;;;;1.80;0.80;;;;;;;24.56;40.64;94059.41;4952675;28;20030;-75
2021/05/20 01:48:27;;;;;;;2.40;1.08;;;;;;;24.50;40.57;94051.38;4952667;28;20042;-75
2021/05/20 01:50:53;;;;;;;2.00;0.88;;;;;;;24.53;41.01;94055.03;4951923;28;20026;-75
2021/05/20 01:53:18;;;;;;;1.80;0.80;;;;;;;24.53;41.39;94055.03;4952567;28;20400;-75
2021/05/20 01:55:47;;;;;;;2.63;0.85;;;;;;;24.49;41.03;94043.72;4970296;28;20037;-75
2021/05/20 01:58:12;;;;;;;2.38;1.05;;;;;;;24.52;41.04;94042.66;4968637;28;20034;-75
2021/05/20 02:00:38;;;;;;;2.03;0.70;;;;;;;24.52;40.72;94042.66;4968424;28;20617;-75
2021/05/20 02:03:03;;;;;;;2.38;0.60;;;;;;;24.54;40.67;94051.00;4969506;28;20055;-75
2021/05/20 02:05:29;;;;;;;1.48;0.60;;;;;;;24.53;40.69;94038.66;4969426;28;20118;-75
2021/05/20 02:07:54;;;;;;;2.00;0.90;;;;;;;24.51;41.16;94035.72;4969967;28;20426;-75
2021/05/20 02:10:19;;;;;;;1.83;0.80;;;;;;;24.53;41.09;94033.19;4969406;28;20042;-75
2021/05/20 02:12:45;;;;;;;1.35;0.60;;;;;;;24.49;41.40;94038.25;4969682;28;20418;-75
2021/05/20 02:15:11;;;;;;;1.98;1.02;;;;;;;24.50;41.63;94039.72;4969401;28;20022;-75
2021/05/20 02:17:36;;;;;;;2.00;0.95;;;;;;;24.49;41.18;94049.19;4952191;28;20077;-75
2021/05/20 02:20:08;;;;;;;2.03;0.80;;;;;;;24.26;41.09;94001.94;4935786;28;20713;-75
2021/05/20 02:22:34;;;;;;;1.73;0.77;;;;;;;24.46;40.83;94036.59;4952248;28;20517;-75
2021/05/20 02:24:59;;;;;;;1.77;0.73;;;;;;;24.46;41.53;94028.41;4969147;28;20030;-75
2021/05/20 02:27:25;;;;;;;2.83;0.90;;;;;;;24.37;40.94;94009.81;4969397;28;20034;-75
2021/05/20 02:29:50;;;;;;;2.65;0.95;;;;;;;24.35;41.33;94017.84;4935967;28;20069;-75
2021/05/20 02:32:16;;;;;;;1.63;0.70;;;;;;;24.46;41.45;94017.50;4952325;28;20042;-75
2021/05/20 02:34:41;;;;;;;2.63;0.90;;;;;;;24.32;41.34;93997.06;4969029;28;20031;-75
2021/05/20 02:37:07;;;;;;;2.47;0.90;;;;;;;24.46;41.44;94017.50;4968237;28;20035;-75
2021/05/20 02:39:32;;;;;;;1.95;0.90;;;;;;;24.48;41.22;94020.41;4951807;28;20578;-75
2021/05/20 02:41:58;;;;;;;2.20;0.85;;;;;;;24.47;41.07;94008.06;4968184;28;20039;-75
2021/05/20 02:44:24;;;;;;;2.70;1.08;;;;;;;24.47;40.87;94013.50;4968597;28;20414;-75
2021/05/20 02:46:49;;;;;;;1.75;0.75;;;;;;;24.45;41.24;94032.41;4969334;28;20046;-75
2021/05/20 02:49:15;;;;;;;1.85;0.70;;;;;;;24.47;41.12;94024.44;4952078;28;20054;-75
2021/05/20 02:51:40;;;;;;;2.33;0.95;;;;;;;24.27;40.99;93999.94;4951601;28;20042;-75
2021/05/20 02:54:06;;;;;;;1.80;0.90;;;;;;;24.45;41.80;94016.03;4951586;28;20035;-75
2021/05/20 02:56:31;;;;;;;1.88;0.98;;;;;;;24.13;41.25;93985.69;4951522;28;20552;-75
2021/05/20 02:58:57;;;;;;;2.63;1.00;;;;;;;24.21;41.18;93997.34;4951815;28;20142;-75
2021/05/20 03:01:23;;;;;;;2.00;0.80;;;;;;;24.45;41.00;94029.69;4955179;28;20031;-75
2021/05/20 03:03:49;;;;;;;2.17;1.10;;;;;;;24.45;41.33;94021.50;4972384;28;20066;-75
2021/05/20 03:06:14;;;;;;;1.63;0.80;;;;;;;24.46;41.41;94028.41;4971520;28;20030;-75
2021/05/20 03:08:40;;;;;;;2.08;0.77;;;;;;;24.44;41.54;94036.44;4971392;28;20033;-75
2021/05/20 03:11:06;;;;;;;2.08;0.80;;;;;;;24.44;41.10;94036.44;4970442;28;20019;-75
2021/05/20 03:13:31;;;;;;;1.83;0.80;;;;;;;24.43;41.71;94040.41;4971911;28;20487;-75
2021/05/20 03:15:57;;;;;;;2.10;0.80;;;;;;;24.45;41.65;94048.78;4972427;28;20065;-75
2021/05/20 03:18:22;;;;;;;1.52;0.77;;;;;;;24.42;41.54;94053.34;4971479;28;20035;-75
2021/05/20 03:20:47;;;;;;;1.77;0.80;;;;;;;24.41;41.36;94049.16;4971637;28;20035;-72
2021/05/20 03:23:13;;;;;;;2.03;0.70;;;;;;;24.28;42.23;94034.84;4972228;28;20483;-77
2021/05/20 03:25:38;;;;;;;3.00;1.13;;;;;;;24.37;41.82;94059.66;4954652;28;20034;-70
2021/05/20 03:28:04;;;;;;;2.55;0.80;;;;;;;24.46;42.14;94083.00;4972122;28;20054;-72
2021/05/20 03:30:29;;;;;;;3.83;0.80;;;;;;;24.41;42.15;94075.72;4971263;28;20557;-72
2021/05/20 03:32:55;;;;;;;2.00;1.08;;;;;;;24.41;42.15;94070.25;4960105;28;20046;-72
2021/05/20 03:35:20;;;;;;;4.88;0.73;;;;;;;24.43;42.18;94084.09;4986769;28;20026;-70
2021/05/20 03:37:46;;;;;;;1.70;1.00;;;;;;;24.43;42.30;94095.00;4973393;28;20030;-72
2021/05/20 03:40:11;;;;;;;2.33;0.70;;;;;;;24.46;42.02;94088.47;4969794;28;20084;-71
2021/05/20 03:42:37;;;;;;;2.50;0.88;;;;;;;24.47;42.93;94100.84;4952664;28;20097;-72
2021/05/20 03:45:06;;;;;;;2.97;0.95;;;;;;;24.49;42.63;94103.78;4971727;28;20030;-72
2021/05/20 03:47:31;;;;;;;2.83;0.80;;;;;;;24.53;42.52;94104.16;4971100;28;20022;-72
2021/05/20 03:49:57;;;;;;;1.55;0.70;;;;;;;24.58;42.39;94100.53;4954943;28;20041;-71
2021/05/20 03:52:22;;;;;;;2.08;0.80;;;;;;;24.63;42.78;94108.56;4951108;28;20031;-71
2021/05/20 03:54:48;;;;;;;2.63;1.02;;;;;;;24.72;42.29;94115.53;4953486;28;20809;-71
2021/05/20 03:57:13;;;;;;;1.65;0.80;;;;;;;24.79;42.50;94109.38;4970320;28;20022;-71
2021/05/20 03:59:39;;;;;;;3.03;0.80;;;;;;;24.86;42.49;94115.59;4970861;28;20035;-71
2021/05/20 04:02:04;;;;;;;1.63;0.60;;;;;;;24.94;41.93;94110.88;4969823;28;20023;-72
2021/05/20 04:04:30;;;;;;;1.90;0.77;;;;;;;25.00;42.25;94102.56;4969923;28;20688;-71
2021/05/20 04:06:55;;;;;;;2.55;0.70;;;;;;;25.11;41.76;94102.97;4970717;28;20089;-71
2021/05/20 04:09:21;;;;;;;2.42;0.68;;;;;;;25.20;41.17;94105.19;4952806;28;20406;-71
2021/05/20 04:11:46;;;;;;;3.72;1.25;;;;;;;25.27;40.63;94104.44;4968417;28;20510;-71
2021/05/20 04:14:12;;;;;;;1.70;0.82;;;;;;;25.35;40.70;94116.13;4971132;28;20125;-71
2021/05/20 04:16:37;;;;;;;2.92;0.73;;;;;;;25.42;40.25;94123.63;4958744;28;20529;-71
2021/05/20 04:19:04;;;;;;;2.03;0.80;;;;;;;25.49;41.26;94120.19;4973892;28;20026;-72
2021/05/20 04:21:30;;;;;;;1.48;0.80;;;;;;;25.42;40.68;94115.41;4979242;28;20561;-73
2021/05/20 04:23:55;;;;;;;2.58;0.80;;;;;;;25.59;40.35;94121.84;4946356;28;20028;-72
2021/05/20 04:26:20;;;;;;;2.10;0.70;;;;;;;25.63;40.41;94105.06;4957294;28;20026;-71
2021/05/20 04:28:46;;;;;;;2.20;0.70;;;;;;;25.73;40.70;94114.22;4975675;28;20019;-72
2021/05/20 04:31:12;;;;;;;1.73;0.80;;;;;;;25.69;39.60;94098.16;4980757;28;20409;-71
2021/05/20 04:33:37;;;;;;;1.70;0.80;;;;;;;25.83;39.99;94111.13;4979967;28;20023;-71
2021/05/20 04:36:03;;;;;;;1.38;0.65;;;;;;;25.88;39.56;94112.94;4976279;28;20027;-71
2021/05/20 04:38:29;;;;;;;1.92;0.80;;;;;;;25.99;39.43;94111.84;4962602;28;20454;-71
2021/05/20 04:40:54;;;;;;;2.80;1.13;;;;;;;26.19;39.12;94119.88;4977366;28;20401;-71
2021/05/20 04:43:19;;;;;;;1.38;0.60;;;;;;;26.36;39.10;94128.25;4983639;28;20395;-72
2021/05/20 04:45:46;;;;;;;2.05;0.70;;;;;;;26.27;38.39;94120.59;4969733;28;20462;-72
2021/05/20 04:48:12;;;;;;;1.50;0.77;;;;;;;26.33;38.35;94101.97;4972586;28;20102;-74
2021/05/20 04:50:37;;;;;;;1.60;0.55;;;;;;;26.52;38.91;94137.91;4899076;28;20131;-71
2021/05/20 04:53:03;;;;;;;1.00;0.52;;;;;;;26.60;39.32;94146.84;4947306;28;20155;-72
2021/05/20 04:55:29;;;;;;;0.98;0.60;;;;;;;26.50;38.53;94138.47;4969378;28;20031;-71
2021/05/20 04:57:54;;;;;;;0.85;0.52;;;;;;;26.57;38.46;94137.00;4970554;28;20038;-71
2021/05/20 05:00:20;;;;;;;2.40;0.90;;;;;;;26.55;38.33;94128.59;4970131;28;20026;-71
2021/05/20 05:02:45;;;;;;;1.45;0.80;;;;;;;26.49;39.15;94108.91;4969047;28;20514;-70
2021/05/20 05:05:11;;;;;;;1.33;0.73;;;;;;;26.68;39.19;94131.09;4941643;28;20038;-70
2021/05/20 05:07:36;;;;;;;2.85;0.90;;;;;;;26.71;38.56;94119.78;4976502;28;20416;-76
2021/05/20 05:10:03;;;;;;;2.20;0.68;;;;;;;26.92;39.02;94145.69;4951828;28;20031;-72
2021/05/20 05:12:29;;;;;;;1.00;0.50;;;;;;;27.05;38.09;94148.19;4962862;28;20517;-72
2021/05/20 05:14:55;;;;;;;1.58;0.60;;;;;;;27.05;38.27;94137.22;4958010;28;20023;-71
2021/05/20 05:17:20;;;;;;;1.83;0.73;;;;;;;27.16;38.68;94158.75;4957324;28;20022;-72
2021/05/20 05:19:46;;;;;;;2.25;0.60;;;;;;;27.13;38.51;94153.63;4949347;29;20035;-71
2021/05/20 05:22:11;;;;;;;1.45;0.60;;;;;;;27.30;37.75;94146.25;4955206;28;20026;-71
2021/05/20 05:24:37;;;;;;;1.75;0.75;;;;;;;27.30;38.49;94146.97;4961042;28;20049;-74
2021/05/20 05:27:04;;;;;;;2.25;0.80;;;;;;;27.34;38.58;94155.56;4943715;28;20030;-71
2021/05/20 05:29:31;;;;;;;2.13;0.85;;;;;;;27.38;38.14;94163.41;4977040;28;20117;-71
2021/05/20 05:31:57;;;;;;;2.85;0.68;;;;;;;27.32;38.55;94143.69;4975784;28;21558;-71
2021/05/20 05:34:22;;;;;;;1.60;0.63;;;;;;;27.27;38.94;94158.34;4954862;28;20022;-73
2021/05/20 05:36:48;;;;;;;0.88;0.50;;;;;;;27.34;39.78;94152.09;4957975;28;20038;-72
2021/05/20 05:39:13;;;;;;;1.67;0.70;;;;;;;27.41;38.91;94151.31;4980436;28;20052;-70
2021/05/20 05:41:39;;;;;;;1.20;0.50;;;;;;;27.51;39.37;94154.97;4960876;28;20023;-73
2021/05/20 05:44:05;;;;;;;1.15;0.60;;;;;;;27.24;39.64;94130.00;4977534;28;20486;-70
2021/05/20 05:46:30;;;;;;;1.85;0.77;;;;;;;27.45;41.18;94173.59;4979086;28;20022;-70
2021/05/20 05:48:58;;;;;;;1.42;0.70;;;;;;;27.26;40.81;94173.31;4976497;28;20026;-69
2021/05/20 05:51:25;;;;;;;0.98;0.50;;;;;;;27.09;40.87;94181.44;4959165;28;20023;-70
2021/05/20 05:53:51;;;;;;;2.33;0.70;;;;;;;27.13;41.70;94198.25;4977829;28;20027;-72
2021/05/20 05:56:16;;;;;;;1.10;0.60;;;;;;;27.16;41.56;94197.13;4979874;28;20030;-73
2021/05/20 05:58:41;;;;;;;1.48;0.68;;;;;;;27.18;40.32;94210.28;4976136;28;20026;-72
2021/05/20 06:01:08;;;;;;;1.48;0.60;;;;;;;27.00;39.98;94195.72;4978369;28;20423;-72
2021/05/20 06:03:34;;;;;;;1.83;0.85;;;;;;;27.18;39.75;94221.25;4962773;28;20066;-72
2021/05/20 06:06:00;;;;;;;1.88;0.70;;;;;;;27.34;39.68;94245.34;4942024;28;20034;-72
2021/05/20 06:08:25;;;;;;;0.90;0.57;;;;;;;27.40;39.08;94259.56;4958096;28;20396;-72
2021/05/20 06:10:51;;;;;;;1.42;0.60;;;;;;;27.31;38.71;94263.59;4977366;28;20049;-71
2021/05/20 06:13:16;;;;;;;1.30;0.55;;;;;;;27.46;39.10;94268.31;4942475;29;20022;-72
2021/05/20 06:15:42;;;;;;;1.60;0.65;;;;;;;27.43;38.84;94263.94;4958367;28;20026;-72
2021/05/20 06:18:07;;;;;;;0.88;0.50;;;;;;;27.50;38.59;94257.72;4966360;28;20035;-77
2021/05/20 06:20:33;;;;;;;1.50;0.70;;;;;;;27.49;38.68;94243.25;4963516;28;20019;-78
2021/05/20 06:22:58;;;;;;;1.88;0.50;;;;;;;27.39;39.89;94225.91;4967996;28;20041;-79
2021/05/20 06:25:24;;;;;;;0.90;0.70;;;;;;;27.44;38.73;94222.25;4960803;28;20105;-83
2021/05/20 06:27:50;;;;;;;1.73;0.63;;;;;;;27.46;38.49;94255.34;4968862;28;20027;-82
2021/05/20 06:30:16;;;;;;;1.40;0.60;;;;;;;27.45;38.60;94244.91;4974768;28;20102;-83
2021/05/20 06:32:41;;;;;;;1.67;0.50;;;;;;;27.36;39.00;94237.28;4975339;28;20015;-82
2021/05/20 06:35:08;;;;;;;1.95;0.60;;;;;;;27.26;38.80;94255.56;4977069;28;20619;-82
2021/05/20 06:37:33;;;;;;;1.40;0.60;;;;;;;27.06;38.74;94242.84;4978526;28;20030;-81
2021/05/20 06:39:59;;;;;;;1.38;0.50;;;;;;;27.06;38.82;94242.84;4943081;28;20030;-80
2021/05/20 06:42:25;;;;;;;1.70;0.60;;;;;;;27.06;39.28;94264.06;4957207;28;20549;-80
2021/05/20 06:44:50;;;;;;;1.10;0.73;;;;;;;26.81;39.28;94244.66;4964080;28;20027;-81
2021/05/20 06:47:16;;;;;;;1.90;0.77;;;;;;;26.71;39.35;94240.34;4953800;28;20061;-82
2021/05/20 06:49:42;;;;;;;1.35;0.55;;;;;;;26.65;39.14;94241.78;4926153;29;20058;-80
2021/05/20 06:52:08;;;;;;;1.52;0.63;;;;;;;26.72;39.47;94257.47;4967353;28;20035;-82
2021/05/20 06:54:33;;;;;;;0.93;0.55;;;;;;;26.48;39.52;94252.56;4953431;28;20558;-82
2021/05/20 06:57:03;;;;;;;1.60;0.60;;;;;;;26.53;39.56;94268.81;4935705;28;20026;-83
2021/05/20 07:00:03;;;;;;;1.63;0.50;;;;;;;26.49;39.83;94251.28;4968367;28;20113;-81
2021/05/20 07:02:22;;;;;;;1.67;0.60;;;;;;;26.32;39.38;94245.63;4965611;28;20046;-82
2021/05/20 07:04:47;;;;;;;1.38;0.57;;;;;;;26.28;39.79;94256.22;4970877;28;20581;-81
2021/05/20 07:07:13;;;;;;;0.85;0.50;;;;;;;26.26;40.11;94255.97;4954266;28;20446;-81
2021/05/20 07:09:39;;;;;;;1.02;0.47;;;;;;;26.21;39.74;94247.97;4974521;28;20026;-80
2021/05/20 07:12:05;;;;;;;0.90;0.57;;;;;;;25.91;39.86;94215.81;4952926;28;20023;-81
2021/05/20 07:14:30;;;;;;;1.20;0.40;;;;;;;26.15;39.84;94261.81;4940816;29;20027;-81
2021/05/20 07:16:56;;;;;;;1.52;0.68;;;;;;;26.10;40.56;94260.00;4965404;28;20018;-79
2021/05/20 07:19:22;;;;;;;1.85;0.65;;;;;;;26.04;40.56;94256.69;4967556;28;20102;-80
2021/05/20 07:21:48;;;;;;;0.85;0.40;;;;;;;26.00;40.62;94261.06;4956734;28;20031;-80
2021/05/20 07:24:13;;;;;;;2.15;0.68;;;;;;;25.99;40.19;94254.88;4965153;28;20411;-80
2021/05/20 07:26:39;;;;;;;1.20;0.57;;;;;;;25.85;40.29;94250.09;4958906;28;20033;-81
2021/05/20 07:29:05;;;;;;;0.95;0.50;;;;;;;25.74;40.23;94238.75;4974475;28;20030;-81
2021/05/20 07:31:31;;;;;;;1.00;0.50;;;;;;;25.81;40.93;94255.91;4963528;28;20033;-81
2021/05/20 07:33:56;;;;;;;1.15;0.50;;;;;;;25.70;40.38;94227.44;4971447;28;20026;-80
2021/05/20 07:36:22;;;;;;;1.30;0.70;;;;;;;25.94;40.83;94258.50;4935046;28;20702;-74
2021/05/20 07:38:48;;;;;;;2.28;0.47;;;;;;;25.89;40.70;94251.19;4968315;28;20446;-71
2021/05/20 07:41:14;;;;;;;1.50;0.40;;;;;;;26.02;40.79;94250.28;4968650;28;20365;-72
2021/05/20 07:43:40;;;;;;;0.70;0.50;;;;;;;26.05;40.32;94252.69;4976928;28;20038;-80
2021/05/20 07:46:05;;;;;;;1.25;0.45;;;;;;;25.88;40.99;94255.19;4975511;28;20618;-72
2021/05/20 07:48:33;;;;;;;0.88;0.50;;;;;;;25.86;40.83;94263.22;4954141;28;20506;-78
2021/05/20 07:51:00;;;;;;;1.00;0.50;;;;;;;25.82;41.41;94262.84;4977834;28;20562;-78
2021/05/20 07:53:25;;;;;;;1.42;0.50;;;;;;;25.77;41.48;94278.69;4982997;28;20482;-79
2021/05/20 07:55:51;;;;;;;1.55;0.70;;;;;;;25.71;40.85;94278.13;4982437;28;20029;-78
2021/05/20 07:58:16;;;;;;;1.48;0.50;;;;;;;25.69;40.76;94272.47;4981548;28;20294;-78
2021/05/20 08:00:42;;;;;;;0.80;0.50;;;;;;;25.58;41.43;94270.75;4980747;28;20431;-78
2021/05/20 08:03:21;;;;;;;1.42;0.50;;;;;;;25.57;41.17;94279.50;4992048;28;20537;-78
2021/05/20 08:05:58;;;;;;;0.90;0.50;;;;;;;25.48;41.19;94282.75;4992684;28;20029;-78
2021/05/20 08:08:38;;;;;;;0.98;0.50;;;;;;;25.59;41.65;94304.28;4993263;28;20034;-80
2021/05/20 08:11:07;;;;;;;1.15;0.50;;;;;;;25.52;41.24;94305.00;4993313;28;20410;-80
2021/05/20 08:13:33;;;;;;;0.98;0.45;;;;;;;25.38;41.13;94295.44;4993131;28;20041;-79
2021/05/20 08:15:59;;;;;;;1.15;0.50;;;;;;;25.47;41.49;94308.63;4991498;28;20126;-80
2021/05/20 08:18:25;;;;;;;1.50;0.60;;;;;;;25.45;40.57;94313.91;4992371;28;20110;-79
2021/05/20 08:20:50;;;;;;;1.20;0.43;;;;;;;25.31;40.88;94300.91;4984957;28;20019;-78
2021/05/20 08:23:16;;;;;;;0.85;0.50;;;;;;;25.21;40.65;94303.38;4945721;28;20019;-78
2021/05/20 08:25:41;;;;;;;0.65;0.47;;;;;;;25.32;40.65;94314.03;4964324;28;20026;-78
2021/05/20 08:28:07;;;;;;;0.85;0.43;;;;;;;25.35;40.96;94312.91;4980236;28;20062;-78
2021/05/20 08:30:32;;;;;;;1.05;0.50;;;;;;;25.31;40.51;94312.56;4977792;28;20529;-78
2021/05/20 08:32:58;;;;;;;0.98;0.40;;;;;;;25.28;41.33;94310.91;4963058;28;20035;-79
2021/05/20 08:35:24;;;;;;;1.60;0.30;;;;;;;25.30;40.41;94316.53;4953949;28;20113;-77
2021/05/20 08:37:49;;;;;;;0.70;0.50;;;;;;;25.37;41.56;94321.34;4971546;28;20118;-74
2021/05/20 08:40:15;;;;;;;0.75;0.30;;;;;;;25.36;41.37;94317.13;4970721;28;20019;-72
2021/05/20 08:42:41;;;;;;;1.30;0.60;;;;;;;25.30;42.23;94332.94;4938633;28;20744;-72
2021/05/20 08:45:13;;;;;;;0.95;0.50;;;;;;;25.18;42.09;94304.44;4971325;28;20066;-73
2021/05/20 08:47:39;;;;;;;0.73;0.35;;;;;;;25.16;41.93;94312.47;4978654;28;20034;-74
2021/05/20 08:50:05;;;;;;;1.52;0.50;;;;;;;25.30;41.14;94332.22;4973721;28;20057;-72
2021/05/20 08:52:31;;;;;;;1.02;0.40;;;;;;;25.31;42.03;94334.41;4970812;28;20109;-71
2021/05/20 08:54:57;;;;;;;1.20;0.40;;;;;;;25.19;40.67;94322.31;4952555;29;20086;-68
2021/05/20 08:57:23;;;;;;;0.70;0.43;;;;;;;25.25;40.17;94331.09;4960018;28;20020;-68
2021/05/20 08:59:48;;;;;;;2.03;0.40;;;;;;;25.25;40.58;94330.38;4984044;28;20035;-69
2021/05/20 09:02:27;;;;;;;2.72;0.40;;;;;;;25.25;41.68;94331.09;4988545;28;20019;-72
2021/05/20 09:05:00;;;;;;;1.30;0.40;;;;;;;25.17;42.19;94313.94;4975852;28;20082;-70
2021/05/20 09:07:36;;;;;;;1.13;0.40;;;;;;;25.32;42.21;94335.91;4969303;28;20026;-73
2021/05/20 09:10:21;;;;;;;1.45;0.40;;;;;;;25.32;41.90;94322.22;4962371;28;20058;-73
2021/05/20 09:12:48;;;;;;;1.17;0.35;;;;;;;25.27;40.91;94301.22;4969431;28;20031;-75
2021/05/20 09:15:25;;;;;;;0.80;0.50;;;;;;;25.37;41.43;94304.94;4954428;28;20039;-72
2021/05/20 09:17:51;;;;;;;1.40;0.50;;;;;;;25.51;41.85;94314.47;4953562;28;20031;-72
2021/05/20 09:20:16;;;;;;;0.52;0.22;;;;;;;25.26;39.35;94266.97;4953310;28;20110;-73
2021/05/20 09:22:42;;;;;;;1.52;0.45;;;;;;;25.48;40.83;94294.41;4946491;28;20495;-74
2021/05/20 09:25:08;;;;;;;1.33;0.30;;;;;;;25.76;40.29;94319.00;4971192;28;20030;-74
2021/05/20 09:27:42;;;;;;;1.02;0.40;;;;;;;25.63;37.13;94304.69;4968173;28;20125;-72
2021/05/20 09:30:09;;;;;;;0.52;0.28;;;;;;;25.60;38.79;94300.28;4962006;28;20027;-75
2021/05/20 09:32:35;;;;;;;1.73;0.40;;;;;;;25.73;38.25;94286.53;4970305;28;20026;-73
2021/05/20 09:35:01;;;;;;;1.67;0.40;;;;;;;25.91;37.61;94308.81;4946023;28;20031;-72
2021/05/20 09:37:27;;;;;;;1.80;0.30;;;;;;;25.83;36.27;94286.19;4944562;28;20038;-72
2021/05/20 09:39:59;;;;;;;0.77;0.30;;;;;;;26.12;37.08;94306.69;4955749;28;20564;-72
2021/05/20 09:42:29;;;;;;;1.48;0.47;;;;;;;26.22;36.92;94296.69;4958820;28;20462;-71
2021/05/20 09:44:54;;;;;;;1.25;0.40;;;;;;;26.37;37.21;94299.47;4958686;28;20035;-72
2021/05/20 09:47:20;;;;;;;0.95;0.30;;;;;;;26.52;37.09;94299.50;4940419;28;20459;-73
2021/05/20 09:50:00;;;;;;;0.70;0.30;;;;;;;26.61;36.22;94304.44;4957686;28;20439;-74
2021/05/20 09:52:26;;;;;;;1.58;0.40;;;;;;;26.65;36.82;94302.78;4958545;28;20388;-74
2021/05/20 09:54:51;;;;;;;1.45;0.40;;;;;;;26.75;36.65;94305.69;4954969;28;20027;-74
2021/05/20 09:57:37;;;;;;;1.55;0.30;;;;;;;26.81;36.84;94315.91;4950762;28;20069;-74
2021/05/20 10:00:09;;;;;;;0.68;0.40;;;;;;;26.93;37.42;94300.59;4949703;28;20098;-73
2021/05/20 10:02:35;;;;;;;1.25;0.20;;;;;;;26.99;35.59;94297.66;4960271;28;20515;-72
2021/05/20 10:05:19;;;;;;;0.93;0.43;;;;;;;27.03;36.09;94293.28;4966805;28;20146;-73
2021/05/20 10:07:44;;;;;;;1.35;0.30;;;;;;;26.98;35.56;94280.50;4969294;28;20458;-74
2021/05/20 10:10:10;;;;;;;1.30;0.30;;;;;;;27.17;35.65;94297.25;4936150;28;20061;-73
2021/05/20 10:12:36;;;;;;;0.68;0.30;;;;;;;27.23;35.89;94306.03;4969700;28;20026;-73
2021/05/20 10:15:02;;;;;;;2.05;0.40;;;;;;;27.25;35.47;94298.00;4951828;28;20050;-72
2021/05/20 10:17:27;;;;;;;2.67;0.55;;;;;;;27.22;34.92;94299.09;4968307;28;20042;-72
2021/05/20 10:19:53;;;;;;;1.08;0.40;;;;;;;27.27;34.48;94306.41;4951200;28;20038;-72
2021/05/20 10:22:18;;;;;;;0.85;0.30;;;;;;;27.26;34.46;94293.97;4948521;29;20038;-73
2021/05/20 10:24:44;;;;;;;0.75;0.40;;;;;;;27.42;35.97;94290.63;4974819;28;20046;-72
2021/05/20 10:27:10;;;;;;;1.83;0.40;;;;;;;27.41;34.26;94288.44;4944333;28;20109;-72
2021/05/20 10:29:36;;;;;;;1.85;0.50;;;;;;;27.45;34.11;94283.31;4977919;28;20026;-74
2021/05/20 10:32:02;;;;;;;1.45;0.50;;;;;;;27.40;35.47;94265.06;4979260;28;20022;-72
2021/05/20 10:34:27;;;;;;;0.98;0.75;;;;;;;27.55;34.17;94292.44;4956828;28;20946;-71
2021/05/20 10:37:00;;;;;;;1.00;0.50;;;;;;;27.65;33.85;94285.09;4978829;28;20023;-74
2021/05/20 10:39:26;;;;;;;2.25;0.60;;;;;;;27.65;34.17;94290.59;4978637;28;20513;-71
2021/05/20 10:41:52;;;;;;;0.80;0.40;;;;;;;27.66;33.72;94281.06;4962454;28;20034;-73
2021/05/20 10:44:19;;;;;;;1.55;0.55;;;;;;;27.66;33.60;94286.56;4971626;28;20030;-72
2021/05/20 10:46:57;;;;;;;1.10;0.73;;;;;;;27.78;34.09;94289.06;4932121;29;20034;-71
2021/05/20 10:49:44;;;;;;;0.70;0.40;;;;;;;27.87;34.70;94291.22;4967442;28;20406;-71
2021/05/20 10:52:34;;;;;;;1.98;0.60;;;;;;;27.80;33.68;94286.50;4959190;28;20046;-76
2021/05/20 10:55:00;;;;;;;1.30;0.50;;;;;;;27.78;33.63;94283.56;4964469;28;20039;-76
2021/05/20 10:57:58;;;;;;;1.27;0.60;;;;;;;27.80;35.07;94281.00;4951157;28;20050;-76
2021/05/20 11:00:42;;;;;;;0.77;0.40;;;;;;;27.78;33.50;94271.88;4964488;28;20035;-76
2021/05/20 11:03:08;;;;;;;2.60;0.60;;;;;;;27.71;33.99;94269.16;4968029;28;20109;-75
2021/05/20 11:05:39;;;;;;;1.38;0.63;;;;;;;27.73;34.08;94258.34;4964853;28;20047;-76
2021/05/20 11:08:08;;;;;;;2.28;0.50;;;;;;;27.61;34.08;94251.81;4966444;28;20034;-76
2021/05/20 11:10:37;;;;;;;1.45;0.55;;;;;;;27.53;33.80;94251.13;4967618;28;20069;-75
2021/05/20 11:13:03;;;;;;;2.15;0.60;;;;;;;27.36;34.58;94237.28;4948403;28;20023;-75
2021/05/20 11:15:28;;;;;;;1.38;0.60;;;;;;;27.30;34.03;94234.00;4967605;28;20426;-76
2021/05/20 11:17:54;;;;;;;1.20;0.63;;;;;;;27.39;33.93;94241.66;4933801;28;20022;-75
2021/05/20 11:20:32;;;;;;;1.75;0.70;;;;;;;27.41;34.37;94244.56;4951741;28;20495;-76
2021/05/20 11:23:17;;;;;;;1.75;0.60;;;;;;;27.42;34.25;94237.81;4968685;28;20030;-76
2021/05/20 11:25:43;;;;;;;1.42;0.50;;;;;;;27.23;34.37;94212.81;4970828;28;20618;-76
2021/05/20 11:28:09;;;;;;;1.15;0.60;;;;;;;27.30;34.45;94229.25;4971634;28;20023;-76
2021/05/20 11:30:34;;;;;;;1.52;0.70;;;;;;;27.27;34.73;94235.09;4935552;28;20031;-75
2021/05/20 11:33:01;;;;;;;1.45;0.52;;;;;;;27.19;34.68;94234.41;4937814;28;20415;-76
2021/05/20 11:37:52;;;;;;;1.55;0.60;;;;;;;27.11;34.79;94233.69;4967778;28;20034;-76